Windsor, VT (05089)

10:20 AM EST on January 27, 2015 (GMT -0500)
Ascutney Farm Stand | Change Station
CLOSE
Current Station
Personal Weather Station
Location: Windsor, VT
Elevation: 427 ft
Nearby Weather Stations
Active Advisory: Winter Storm Warning

Elev 427 ft 43.41 °N, 72.41 °W | Updated 3 minutes ago

Snow
Snow
13.3 °F
Feels Like 2 °F
N
7.8
Wind Variable Wind from NNE

Today
High -- | Low -- °F
--% Chance of Precip.
Yesterday
High -- | Low -- °F
Precip. -- in
7:11 AM 4:54 PM
First Quarter, 55% visible
Pressure 29.75 in
Visibility 0.2 miles
Clouds
Windchill 2 °F
Dew Point 10 °F
Humidity 85%
Rainfall 0.00 in
Snow Depth Not available.
UV Not available.
Pollen .10 out of 12
Air Quality Not available.
Flu Activity Not available.
SPECI KVSF 271513Z AUTO VRB04KT 1/4SM +SN VV015 M11/M14 A2975 RMK AO2 P0000 T11111139 TSNO

More Conditions Fewer Conditions

Pressure 29.75 in
Visibility 0.2 miles
Clouds
Windchill 2 °F
Dew Point 10 °F
Humidity 85%
Rainfall 0.00 in
Snow Depth Not available.
UV Not available.
Pollen .10 out of 12
Air Quality Not available.
Flu Activity Not available.
SPECI KVSF 271513Z AUTO VRB04KT 1/4SM +SN VV015 M11/M14 A2975 RMK AO2 P0000 T11111139 TSNO

More Conditions Fewer Conditions

10-Day Weather Forecast

Almanac

Astronomy

Jan. 27, 2015 Rise Set
Actual Time
Civil Twilight
Nautical Twilight
Astronomical Twilight
Moon
Length of Visible Light
Length of Day
Tomorrow will be .
, % of the Moon is Illuminated

Today's Extremes

State Highs State Lows

Community

WunderPhotos

Upload Photos

1,790,686 photos uploaded!

WunderBlogs® & News

Nearby

Air Quality

  Air Quality AQ Index Pollutant
Not available.

Snow Depth

Station Depth Elevation

Earthquake Activity

City Distance Mag. Time & Date
Minimum magnitude displayed is 2.5.

Coastal Water Temperatures

Place Temperature

Nearby Weather Stations